createdAt,value
2023-05-05T00:00:58.894Z,10.18
2023-05-05T00:03:25.882Z,10.27
2023-05-05T00:05:54.751Z,10.13
2023-05-05T00:08:21.817Z,10.32
2023-05-05T00:10:50.446Z,9.18
2023-05-05T00:13:17.660Z,9.57
2023-05-05T00:15:45.819Z,8.95
2023-05-05T00:18:15.124Z,10.02
2023-05-05T00:23:08.925Z,9.35
2023-05-05T00:25:35.795Z,9.05
2023-05-05T00:28:02.759Z,8.98
2023-05-05T00:30:30.816Z,8.82
2023-05-05T00:32:57.837Z,11.70
2023-05-05T00:35:24.869Z,10.00
2023-05-05T00:37:51.683Z,8.85
2023-05-05T00:40:19.191Z,10.68
2023-05-05T00:42:47.442Z,9.05
2023-05-05T00:45:15.285Z,9.27
2023-05-05T00:47:46.892Z,10.40
2023-05-05T00:50:21.757Z,9.75
2023-05-05T00:52:48.688Z,9.13
2023-05-05T00:55:15.505Z,9.50
2023-05-05T00:57:42.300Z,11.00
2023-05-05T01:00:10.085Z,9.02
2023-05-05T01:02:39.293Z,8.93
2023-05-05T01:05:08.061Z,9.20
2023-05-05T01:07:43.831Z,9.27
2023-05-05T01:10:20.265Z,9.00
2023-05-05T01:13:15.308Z,9.05
2023-05-05T01:16:12.663Z,8.52
2023-05-05T01:19:09.411Z,8.88
2023-05-05T01:21:44.233Z,10.10
2023-05-05T01:24:20.202Z,10.50
2023-05-05T01:27:09.660Z,9.60
2023-05-05T01:29:58.386Z,8.48
2023-05-05T01:32:30.031Z,8.35
2023-05-05T01:35:01.058Z,9.00
2023-05-05T01:37:42.917Z,9.48
2023-05-05T01:40:10.968Z,9.55
2023-05-05T01:42:38.391Z,8.82
2023-05-05T01:45:06.002Z,9.57
2023-05-05T01:47:32.911Z,10.05
2023-05-05T01:49:59.933Z,9.98
2023-05-05T01:52:27.162Z,9.32
2023-05-05T01:54:54.104Z,10.20
2023-05-05T01:57:21.893Z,9.25
2023-05-05T01:59:48.880Z,9.20
2023-05-05T02:02:15.758Z,9.57
2023-05-05T02:04:43.602Z,10.20
2023-05-05T02:07:11.839Z,9.32
2023-05-05T02:09:38.778Z,8.93
2023-05-05T02:12:05.987Z,8.85
2023-05-05T02:14:33.437Z,10.60
2023-05-05T02:17:00.389Z,9.18
2023-05-05T02:19:32.607Z,9.10
2023-05-05T02:21:59.572Z,8.63
2023-05-05T02:24:26.759Z,9.60
2023-05-05T02:26:53.659Z,10.23
2023-05-05T02:29:28.898Z,9.60
2023-05-05T02:31:58.458Z,8.70
2023-05-05T02:34:26.732Z,9.40
2023-05-05T02:36:56.060Z,9.80
2023-05-05T02:41:54.299Z,9.70
2023-05-05T02:44:23.569Z,9.23
2023-05-05T02:46:50.505Z,11.60
2023-05-05T02:49:17.427Z,9.52
2023-05-05T02:51:44.274Z,8.75
2023-05-05T02:54:11.113Z,11.50
2023-05-05T02:56:44.772Z,8.80
2023-05-05T02:59:29.945Z,9.35
2023-05-05T03:02:07.363Z,9.38
2023-05-05T03:04:40.076Z,8.65
2023-05-05T03:07:15.490Z,8.15
2023-05-05T03:10:16.335Z,8.77
2023-05-05T03:12:54.044Z,9.68
2023-05-05T03:15:26.645Z,9.85
2023-05-05T03:17:54.119Z,9.10
2023-05-05T03:20:21.106Z,9.60
2023-05-05T03:22:48.100Z,8.80
2023-05-05T03:25:15.139Z,9.63
2023-05-05T03:27:42.108Z,8.95
2023-05-05T03:30:10.514Z,9.93
2023-05-05T03:32:37.824Z,10.30
2023-05-05T03:35:05.283Z,11.52
2023-05-05T03:37:32.239Z,10.88
2023-05-05T03:39:59.046Z,10.40
2023-05-05T03:42:26.001Z,9.60
2023-05-05T03:44:53.907Z,8.93
2023-05-05T03:47:20.745Z,9.80
2023-05-05T03:49:47.994Z,10.43
2023-05-05T03:52:15.214Z,10.13
2023-05-05T03:54:43.211Z,9.40
2023-05-05T03:57:10.165Z,9.45
2023-05-05T03:59:37.064Z,8.80
2023-05-05T04:02:03.985Z,9.38
2023-05-05T04:04:31.175Z,8.50
2023-05-05T04:06:58.236Z,8.25
2023-05-05T04:09:25.171Z,8.93
2023-05-05T04:11:51.996Z,9.27
2023-05-05T04:14:18.977Z,9.02
2023-05-05T04:16:46.033Z,9.32
2023-05-05T04:19:13.446Z,9.82
2023-05-05T04:21:40.524Z,8.82
2023-05-05T04:24:07.388Z,9.68
2023-05-05T04:26:34.540Z,10.73
2023-05-05T04:29:01.435Z,9.70
2023-05-05T04:31:28.485Z,10.05
2023-05-05T04:33:55.491Z,8.73
2023-05-05T04:36:22.421Z,8.70
2023-05-05T04:38:49.344Z,8.90
2023-05-05T04:41:16.215Z,9.02
2023-05-05T04:43:43.090Z,8.68
2023-05-05T04:46:10.292Z,9.27
2023-05-05T04:48:38.225Z,8.73
2023-05-05T04:51:06.617Z,8.68
2023-05-05T04:53:33.684Z,8.10
2023-05-05T04:56:01.626Z,10.20
2023-05-05T04:58:29.073Z,9.25
2023-05-05T05:00:56.061Z,11.90
2023-05-05T05:03:23.035Z,8.50
2023-05-05T05:05:50.287Z,8.43
2023-05-05T05:08:18.015Z,9.85
2023-05-05T05:10:45.128Z,9.13
2023-05-05T05:13:12.929Z,7.78
2023-05-05T05:15:41.147Z,8.20
2023-05-05T05:18:08.102Z,6.82
2023-05-05T05:20:35.024Z,7.93
2023-05-05T05:23:04.916Z,7.82
2023-05-05T05:25:31.901Z,7.60
2023-05-05T05:28:09.503Z,7.40
2023-05-05T05:30:37.310Z,8.55
2023-05-05T05:33:04.221Z,7.00
2023-05-05T05:35:31.729Z,7.32
2023-05-05T05:37:58.689Z,6.43
2023-05-05T05:40:25.555Z,6.63
2023-05-05T05:42:52.363Z,7.07
2023-05-05T05:45:19.417Z,7.75
2023-05-05T05:47:46.476Z,6.13
2023-05-05T05:50:17.371Z,7.80
2023-05-05T05:52:44.380Z,6.78
2023-05-05T05:55:11.349Z,7.30
2023-05-05T05:57:38.267Z,7.78
2023-05-05T06:00:06.511Z,7.50
2023-05-05T06:02:34.280Z,8.88
2023-05-05T06:05:06.688Z,6.35
2023-05-05T06:07:33.743Z,7.10
2023-05-05T06:10:10.893Z,6.38
2023-05-05T06:12:51.398Z,8.02
2023-05-05T06:15:19.524Z,7.15
2023-05-05T06:17:47.846Z,7.75
2023-05-05T06:22:42.296Z,7.77
2023-05-05T06:25:09.442Z,7.63
2023-05-05T06:27:36.505Z,6.15
2023-05-05T06:30:03.729Z,7.35
2023-05-05T06:32:30.853Z,8.30
2023-05-05T06:34:57.874Z,7.75
2023-05-05T06:37:27.281Z,7.28
2023-05-05T06:39:54.324Z,7.78
2023-05-05T06:42:21.555Z,11.02
2023-05-05T06:44:48.471Z,6.32
2023-05-05T06:47:15.418Z,8.50
2023-05-05T06:49:42.351Z,8.55
2023-05-05T06:52:09.151Z,9.60
2023-05-05T06:54:36.146Z,7.95
2023-05-05T06:57:03.130Z,7.50
2023-05-05T06:59:30.077Z,7.50
2023-05-05T07:02:00.098Z,7.95
2023-05-05T07:04:28.386Z,8.30
2023-05-05T07:06:55.458Z,8.15
2023-05-05T07:09:22.329Z,7.10
2023-05-05T07:11:49.322Z,6.35
2023-05-05T07:14:16.155Z,7.28
2023-05-05T07:16:43.081Z,7.90
2023-05-05T07:19:09.961Z,8.20
2023-05-05T07:21:36.883Z,6.80
2023-05-05T07:24:04.275Z,7.18
2023-05-05T07:26:31.397Z,6.80
2023-05-05T07:28:59.249Z,6.57
2023-05-05T07:31:26.750Z,7.88
2023-05-05T07:33:56.271Z,6.88
2023-05-05T07:36:23.497Z,7.97
2023-05-05T07:38:50.571Z,6.28
2023-05-05T07:41:20.565Z,6.45
2023-05-05T07:43:50.136Z,6.10
2023-05-05T07:46:18.121Z,6.25
2023-05-05T07:48:45.068Z,6.70
2023-05-05T07:51:12.211Z,7.13
2023-05-05T07:53:41.184Z,4.47
2023-05-05T07:56:09.133Z,7.72
2023-05-05T07:58:36.018Z,6.25
2023-05-05T08:01:03.177Z,5.85
2023-05-05T08:03:30.273Z,6.53
2023-05-05T08:05:57.273Z,6.28
2023-05-05T08:08:25.235Z,7.07
2023-05-05T08:10:53.546Z,6.93
2023-05-05T08:13:20.552Z,6.22
2023-05-05T08:15:47.797Z,4.28
2023-05-05T08:18:14.952Z,5.60
2023-05-05T08:20:43.479Z,5.72
2023-05-05T08:23:11.977Z,6.00
2023-05-05T08:25:39.124Z,4.80
2023-05-05T08:28:07.994Z,5.85
2023-05-05T08:30:35.518Z,5.68
2023-05-05T08:33:03.705Z,3.97
2023-05-05T08:35:30.777Z,4.28
2023-05-05T08:37:59.233Z,4.25
2023-05-05T08:40:30.206Z,4.90
2023-05-05T08:42:57.376Z,5.00
2023-05-05T08:45:24.217Z,4.30
2023-05-05T08:47:51.219Z,4.80
2023-05-05T08:50:18.205Z,5.15
2023-05-05T08:52:45.277Z,4.05
2023-05-05T08:55:27.244Z,4.13
2023-05-05T08:57:58.267Z,4.45
2023-05-05T09:00:27.495Z,4.35
2023-05-05T09:02:58.594Z,3.53
2023-05-05T09:05:26.741Z,4.90
2023-05-05T09:07:53.530Z,5.38
2023-05-05T09:10:20.947Z,3.42
2023-05-05T09:12:50.432Z,4.33
2023-05-05T09:15:17.422Z,4.22
2023-05-05T09:17:44.528Z,4.10
2023-05-05T09:20:12.809Z,4.35
2023-05-05T09:25:10.167Z,6.30
2023-05-05T09:27:42.580Z,6.38
2023-05-05T09:30:11.310Z,7.50
2023-05-05T09:32:49.242Z,4.50
2023-05-05T09:35:16.693Z,4.55
2023-05-05T09:37:43.896Z,3.17
2023-05-05T09:40:12.072Z,6.15
2023-05-05T09:42:39.696Z,5.75
2023-05-05T09:45:27.595Z,4.60
2023-05-05T09:47:59.092Z,4.80
2023-05-05T09:50:31.091Z,3.92
2023-05-05T09:53:02.208Z,3.80
2023-05-05T09:55:31.497Z,4.00
2023-05-05T09:58:17.371Z,3.08
2023-05-05T10:00:44.366Z,3.97
2023-05-05T10:03:11.412Z,5.93
2023-05-05T10:05:54.674Z,3.97
2023-05-05T10:08:23.553Z,4.63
2023-05-05T10:10:54.339Z,5.65
2023-05-05T10:13:22.987Z,5.05
2023-05-05T10:15:51.853Z,4.05
2023-05-05T10:18:25.797Z,4.35
2023-05-05T10:20:55.534Z,4.20
2023-05-05T10:23:23.443Z,4.88
2023-05-05T10:25:55.930Z,6.68
2023-05-05T10:28:28.807Z,3.80
2023-05-05T10:30:57.035Z,4.32
2023-05-05T10:33:32.487Z,3.10
2023-05-05T10:36:02.729Z,4.65
2023-05-05T10:38:31.183Z,3.63
2023-05-05T10:41:02.293Z,5.60
2023-05-05T10:43:31.388Z,4.93
2023-05-05T10:45:58.437Z,4.05
2023-05-05T10:48:48.590Z,4.70
2023-05-05T10:51:49.032Z,3.80
2023-05-05T10:54:54.833Z,4.47
2023-05-05T10:57:24.034Z,2.70
2023-05-05T10:59:51.015Z,5.38
2023-05-05T11:02:30.374Z,4.43
2023-05-05T11:05:23.723Z,4.45
2023-05-05T11:07:51.699Z,4.70
2023-05-05T11:10:22.948Z,3.53
2023-05-05T11:12:59.538Z,4.68
2023-05-05T11:15:27.570Z,4.32
2023-05-05T11:18:02.577Z,3.83
2023-05-05T11:20:37.904Z,2.90
2023-05-05T11:23:05.337Z,7.38
2023-05-05T11:25:35.940Z,4.72
2023-05-05T11:28:11.420Z,3.05
2023-05-05T11:30:57.463Z,6.30
2023-05-05T11:33:31.611Z,3.78
2023-05-05T11:35:59.342Z,4.55
2023-05-05T11:38:47.803Z,3.83
2023-05-05T11:41:20.009Z,4.63
2023-05-05T11:43:46.885Z,4.32
2023-05-05T11:46:14.643Z,3.53
2023-05-05T11:48:49.013Z,4.57
2023-05-05T11:51:17.063Z,3.13
2023-05-05T11:53:48.215Z,5.32
2023-05-05T11:56:20.154Z,4.47
2023-05-05T11:58:50.044Z,4.65
2023-05-05T12:01:17.005Z,5.63
2023-05-05T12:03:46.001Z,4.25
2023-05-05T12:06:13.407Z,4.28
2023-05-05T12:08:41.275Z,4.60
2023-05-05T12:11:09.249Z,4.25
2023-05-05T12:13:36.150Z,4.07
2023-05-05T12:16:10.040Z,3.88
2023-05-05T12:18:39.249Z,4.60
2023-05-05T12:21:19.024Z,4.63
2023-05-05T12:23:46.998Z,4.93
2023-05-05T12:26:32.340Z,5.38
2023-05-05T12:29:00.095Z,4.03
2023-05-05T12:31:40.329Z,4.30
2023-05-05T12:34:10.609Z,4.03
2023-05-05T12:36:38.459Z,3.78
2023-05-05T12:39:05.601Z,3.70
2023-05-05T12:41:33.328Z,5.60
2023-05-05T12:44:02.218Z,4.57
2023-05-05T12:46:32.614Z,5.43
2023-05-05T12:49:05.657Z,4.38
2023-05-05T12:51:33.485Z,5.78
2023-05-05T12:54:03.488Z,3.53
2023-05-05T12:56:41.183Z,3.42
2023-05-05T12:59:12.478Z,3.47
2023-05-05T13:01:52.649Z,4.85
2023-05-05T13:04:22.290Z,5.65
2023-05-05T13:07:12.484Z,4.68
2023-05-05T13:09:39.509Z,4.13
2023-05-05T13:12:15.468Z,4.28
2023-05-05T13:14:42.519Z,5.97
2023-05-05T13:17:10.851Z,6.30
2023-05-05T13:22:10.301Z,5.20
2023-05-05T13:24:49.870Z,6.38
2023-05-05T13:27:19.235Z,9.82
2023-05-05T13:29:46.316Z,5.28
2023-05-05T13:32:13.084Z,5.65
2023-05-05T13:34:39.785Z,5.68
2023-05-05T13:37:06.754Z,6.30
2023-05-05T13:39:33.678Z,5.00
2023-05-05T13:42:00.615Z,5.30
2023-05-05T13:44:27.648Z,4.60
2023-05-05T13:46:54.764Z,6.88
2023-05-05T13:49:21.743Z,4.72
2023-05-05T13:51:48.678Z,4.35
2023-05-05T13:54:15.534Z,6.82
2023-05-05T13:56:42.670Z,5.03
2023-05-05T13:59:09.709Z,5.50
2023-05-05T14:01:36.703Z,5.65
2023-05-05T14:04:05.448Z,5.50
2023-05-05T14:06:33.863Z,3.97
2023-05-05T14:09:00.912Z,4.18
2023-05-05T14:11:27.912Z,4.10
2023-05-05T14:13:54.743Z,4.47
2023-05-05T14:16:21.829Z,4.93
2023-05-05T14:18:48.913Z,6.70
2023-05-05T14:21:15.887Z,4.80
2023-05-05T14:23:42.829Z,3.35
2023-05-05T14:26:09.779Z,4.10
2023-05-05T14:28:36.673Z,4.50
2023-05-05T14:31:03.476Z,4.18
2023-05-05T14:33:30.410Z,4.72
2023-05-05T14:35:57.308Z,4.85
2023-05-05T14:38:24.405Z,5.47
2023-05-05T14:40:51.455Z,6.90
2023-05-05T14:43:18.349Z,5.30
2023-05-05T14:45:45.355Z,5.25
2023-05-05T14:48:12.121Z,6.60
2023-05-05T14:50:40.677Z,5.85
2023-05-05T14:53:07.571Z,3.53
2023-05-05T14:55:34.398Z,6.88
2023-05-05T14:58:01.328Z,5.30
2023-05-05T15:00:29.132Z,5.18
2023-05-05T15:02:56.275Z,6.85
2023-05-05T15:05:23.372Z,3.50
2023-05-05T15:07:50.542Z,5.80
2023-05-05T15:10:18.207Z,3.22
2023-05-05T15:12:46.657Z,5.60
2023-05-05T15:15:13.681Z,4.28
2023-05-05T15:17:41.981Z,3.75
2023-05-05T15:22:37.045Z,5.38
2023-05-05T15:25:04.216Z,4.25
2023-05-05T15:27:33.661Z,6.30
2023-05-05T15:30:01.317Z,6.22
2023-05-05T15:32:29.514Z,4.80
2023-05-05T15:34:56.576Z,5.40
2023-05-05T15:37:23.518Z,5.07
2023-05-05T15:39:50.575Z,5.15
2023-05-05T15:42:17.437Z,4.07
2023-05-05T15:44:44.356Z,5.25
2023-05-05T15:47:12.031Z,4.47
2023-05-05T15:49:38.981Z,4.03
2023-05-05T15:52:05.947Z,4.38
2023-05-05T15:54:32.850Z,5.85
2023-05-05T15:56:59.914Z,4.85
2023-05-05T15:59:26.826Z,5.63
2023-05-05T16:01:54.293Z,7.25
2023-05-05T16:04:21.386Z,6.07
2023-05-05T16:06:48.386Z,6.07
2023-05-05T16:09:15.368Z,7.55
2023-05-05T16:11:42.213Z,5.63
2023-05-05T16:14:09.072Z,6.03
2023-05-05T16:16:36.026Z,6.22
2023-05-05T16:19:03.162Z,4.80
2023-05-05T16:21:30.127Z,5.85
2023-05-05T16:23:57.053Z,4.75
2023-05-05T16:26:23.899Z,5.65
2023-05-05T16:28:50.855Z,6.78
2023-05-05T16:31:17.931Z,5.25
2023-05-05T16:33:44.999Z,5.93
2023-05-05T16:36:12.617Z,4.60
2023-05-05T16:38:40.437Z,6.20
2023-05-05T16:41:08.074Z,5.90
2023-05-05T16:43:37.398Z,6.10
2023-05-05T16:46:04.525Z,5.75
2023-05-05T16:48:31.645Z,6.95
2023-05-05T16:50:58.824Z,5.00
2023-05-05T16:53:25.829Z,4.80
2023-05-05T16:55:53.591Z,7.05
2023-05-05T16:58:21.215Z,5.80
2023-05-05T17:00:49.477Z,5.15
2023-05-05T17:03:17.264Z,6.65
2023-05-05T17:05:46.636Z,5.10
2023-05-05T17:08:15.589Z,5.10
2023-05-05T17:10:42.790Z,7.13
2023-05-05T17:13:10.787Z,5.43
2023-05-05T17:15:37.743Z,6.03
2023-05-05T17:18:05.494Z,5.72
2023-05-05T17:20:32.429Z,5.75
2023-05-05T17:22:59.583Z,6.70
2023-05-05T17:25:26.425Z,6.22
2023-05-05T17:27:54.321Z,5.10
2023-05-05T17:30:21.235Z,4.43
2023-05-05T17:32:48.053Z,4.78
2023-05-05T17:35:15.285Z,5.05
2023-05-05T17:37:42.460Z,6.32
2023-05-05T17:40:09.452Z,6.38
2023-05-05T17:42:36.282Z,5.60
2023-05-05T17:45:03.507Z,6.50
2023-05-05T17:47:30.545Z,4.75
2023-05-05T17:49:57.554Z,6.25
2023-05-05T17:52:24.469Z,4.63
2023-05-05T17:54:51.699Z,5.95
2023-05-05T17:57:21.283Z,4.88
2023-05-05T17:59:50.111Z,5.75
2023-05-05T18:04:43.963Z,5.35
2023-05-05T18:07:12.682Z,6.43
2023-05-05T18:09:39.651Z,4.80
2023-05-05T18:12:08.271Z,5.40
2023-05-05T18:14:35.884Z,5.20
2023-05-05T18:17:02.978Z,5.72
2023-05-05T18:19:29.877Z,5.05
2023-05-05T18:21:57.642Z,6.43
2023-05-05T18:24:24.679Z,6.53
2023-05-05T18:26:52.259Z,6.80
2023-05-05T18:29:19.533Z,5.75
2023-05-05T18:31:49.731Z,4.90
2023-05-05T18:34:17.230Z,6.13
2023-05-05T18:36:44.350Z,5.65
2023-05-05T18:39:11.703Z,5.50
2023-05-05T18:41:38.601Z,7.22
2023-05-05T18:44:05.722Z,6.45
2023-05-05T18:46:32.713Z,6.80
2023-05-05T18:49:00.823Z,6.80
2023-05-05T18:51:28.813Z,6.63
2023-05-05T18:53:55.692Z,4.85
2023-05-05T18:56:22.878Z,5.53
2023-05-05T18:58:49.844Z,5.82
2023-05-05T19:01:17.386Z,6.38
2023-05-05T19:03:50.763Z,8.52
2023-05-05T19:06:17.712Z,6.68
2023-05-05T19:08:45.912Z,10.73
2023-05-05T19:11:15.110Z,6.05
2023-05-05T19:13:42.550Z,7.72
2023-05-05T19:16:11.524Z,9.40
2023-05-05T19:18:39.238Z,6.20
2023-05-05T19:21:06.138Z,6.75
2023-05-05T19:23:33.661Z,6.47
2023-05-05T19:26:00.814Z,6.85
2023-05-05T19:28:27.619Z,6.80
2023-05-05T19:30:54.572Z,6.97
2023-05-05T19:33:21.539Z,6.63
2023-05-05T19:35:48.365Z,6.32
2023-05-05T19:38:16.032Z,7.20
2023-05-05T19:40:43.384Z,7.15
2023-05-05T19:43:10.489Z,7.40
2023-05-05T19:45:37.692Z,6.38
2023-05-05T19:48:04.978Z,7.20
2023-05-05T19:50:32.042Z,7.43
2023-05-05T19:52:58.975Z,8.02
2023-05-05T19:55:25.959Z,7.70
2023-05-05T19:57:52.778Z,8.35
2023-05-05T20:00:20.013Z,9.48
2023-05-05T20:02:48.743Z,8.00
2023-05-05T20:05:17.917Z,8.23
2023-05-05T20:12:48.184Z,6.95
2023-05-05T20:15:19.296Z,8.38
2023-05-05T20:17:47.520Z,8.20
2023-05-05T20:20:20.541Z,8.75
2023-05-05T20:22:47.641Z,7.32
2023-05-05T20:25:18.110Z,7.85
2023-05-05T20:27:45.868Z,7.57
2023-05-05T20:30:13.475Z,8.07
2023-05-05T20:32:40.893Z,7.82
2023-05-05T20:35:08.976Z,8.93
2023-05-05T20:37:36.014Z,8.65
2023-05-05T20:40:02.908Z,8.82
2023-05-05T20:42:29.929Z,8.52
2023-05-05T20:44:57.042Z,9.57
2023-05-05T20:47:24.511Z,7.90
2023-05-05T20:49:52.681Z,8.50
2023-05-05T20:52:19.763Z,7.97
2023-05-05T20:54:46.787Z,9.13
2023-05-05T20:57:13.717Z,7.93
2023-05-05T20:59:40.633Z,10.07
2023-05-05T21:02:07.850Z,8.50
2023-05-05T21:04:34.804Z,7.40
2023-05-05T21:07:01.809Z,9.35
2023-05-05T21:09:28.895Z,8.98
2023-05-05T21:11:55.843Z,8.57
2023-05-05T21:14:23.829Z,9.25
2023-05-05T21:16:50.951Z,9.60
2023-05-05T21:19:18.028Z,9.98
2023-05-05T21:21:44.970Z,10.00
2023-05-05T21:24:13.272Z,9.48
2023-05-05T21:26:46.983Z,9.67
2023-05-05T21:29:13.841Z,11.02
2023-05-05T21:31:40.759Z,10.07
2023-05-05T21:34:07.628Z,10.10
2023-05-05T21:36:34.640Z,9.60
2023-05-05T21:39:01.856Z,8.98
2023-05-05T21:41:28.855Z,9.30
2023-05-05T21:43:55.887Z,9.05
2023-05-05T21:46:23.115Z,9.52
2023-05-05T21:48:50.167Z,9.27
2023-05-05T21:51:17.551Z,9.68
2023-05-05T21:53:44.508Z,9.80
2023-05-05T21:56:11.495Z,9.15
2023-05-05T21:58:38.411Z,9.90
2023-05-05T22:01:05.551Z,9.90
2023-05-05T22:03:34.368Z,9.27
2023-05-05T22:06:01.491Z,10.10
2023-05-05T22:08:28.418Z,8.98
2023-05-05T22:10:55.281Z,11.35
2023-05-05T22:13:22.354Z,10.27
2023-05-05T22:15:49.354Z,10.07
2023-05-05T22:18:16.317Z,9.55
2023-05-05T22:20:44.169Z,9.50
2023-05-05T22:23:10.915Z,10.32
2023-05-05T22:25:37.696Z,10.98
2023-05-05T22:28:05.003Z,10.10
2023-05-05T22:30:32.035Z,9.98
2023-05-05T22:32:58.931Z,9.80
2023-05-05T22:35:25.786Z,10.35
2023-05-05T22:37:52.746Z,9.50
2023-05-05T22:40:19.529Z,9.82
2023-05-05T22:42:46.304Z,10.25
2023-05-05T22:45:13.909Z,10.57
2023-05-05T22:47:41.162Z,8.32
2023-05-05T22:50:09.104Z,9.00
2023-05-05T22:52:36.527Z,8.00
2023-05-05T22:55:03.638Z,8.85
2023-05-05T22:57:30.592Z,8.50
2023-05-05T22:59:57.651Z,9.43
2023-05-05T23:02:26.840Z,8.77
2023-05-05T23:04:53.876Z,8.77
2023-05-05T23:07:20.977Z,8.23
2023-05-05T23:09:48.117Z,7.75
2023-05-05T23:12:15.006Z,8.18
2023-05-05T23:14:42.025Z,7.75
2023-05-05T23:17:08.835Z,8.27
2023-05-05T23:19:36.380Z,7.70
2023-05-05T23:22:03.784Z,6.82
2023-05-05T23:24:31.171Z,7.95
2023-05-05T23:27:04.336Z,9.57
2023-05-05T23:29:31.460Z,8.15
2023-05-05T23:31:58.451Z,8.38
2023-05-05T23:34:26.084Z,10.68
2023-05-05T23:36:53.061Z,10.38
2023-05-05T23:39:19.941Z,10.95
2023-05-05T23:41:46.798Z,9.57
2023-05-05T23:44:13.678Z,10.38
2023-05-05T23:46:40.761Z,9.90
2023-05-05T23:49:07.592Z,9.95
2023-05-05T23:51:34.455Z,9.88
2023-05-05T23:54:01.513Z,10.82
2023-05-05T23:56:28.299Z,9.02
2023-05-05T23:58:55.196Z,9.18
